Time;durP1;ratioP1;P1;durP2;ratioP2;P2;SDS_P1;SDS_P2;PMS_P1;PMS_P2;Temp;Humidity;BMP_temperature;BMP_pressure;BME280_temperature;BME280_humidity;BME280_pressure;Samples;Min_cycle;Max_cycle;Signal;HPM_P1;HPM_P2
2021/11/27 00:00:38;;;;;;;1.03;0.50;;;4.30;99.90;;;;;;4997709;28;20252;-56
2021/11/27 00:03:06;;;;;;;1.37;0.60;;;4.20;99.90;;;;;;4997680;28;20954;-55
2021/11/27 00:05:37;;;;;;;1.93;0.70;;;4.10;99.90;;;;;;4995543;28;20209;-54
2021/11/27 00:08:06;;;;;;;1.17;0.50;;;4.00;99.90;;;;;;4996110;28;20318;-57
2021/11/27 00:10:35;;;;;;;1.93;0.50;;;4.10;99.90;;;;;;4993047;28;20204;-55
2021/11/27 00:13:03;;;;;;;0.57;0.43;;;4.00;99.90;;;;;;4997057;28;20293;-55
2021/11/27 00:15:32;;;;;;;5.23;0.70;;;4.10;99.90;;;;;;4994142;28;20206;-55
2021/11/27 00:17:59;;;;;;;3.20;0.50;;;4.20;99.90;;;;;;4995649;28;20247;-52
2021/11/27 00:20:35;;;;;;;1.27;0.70;;;4.00;99.90;;;;;;4995314;28;20203;-53
2021/11/27 00:23:02;;;;;;;2.30;0.60;;;4.10;99.90;;;;;;4996352;28;20219;-56
2021/11/27 00:25:29;;;;;;;1.60;0.60;;;4.20;99.90;;;;;;4995264;28;20258;-55
2021/11/27 00:27:56;;;;;;;3.03;0.70;;;4.20;99.90;;;;;;4996174;28;20242;-54
2021/11/27 00:30:27;;;;;;;2.43;0.97;;;4.10;99.90;;;;;;4996772;28;20748;-54
2021/11/27 00:32:54;;;;;;;1.93;0.50;;;4.10;99.90;;;;;;4999274;28;20285;-54
2021/11/27 00:35:23;;;;;;;3.33;1.03;;;4.10;99.90;;;;;;4998334;28;20673;-53
2021/11/27 00:37:53;;;;;;;2.10;0.73;;;4.10;99.90;;;;;;4991605;28;20190;-54
2021/11/27 00:40:20;;;;;;;0.50;0.40;;;4.00;99.90;;;;;;4997811;28;20837;-57
2021/11/27 00:42:48;;;;;;;1.80;0.80;;;3.90;99.90;;;;;;4995467;28;20290;-54
2021/11/27 00:45:17;;;;;;;4.63;0.77;;;3.80;99.90;;;;;;4997634;28;20215;-55
2021/11/27 00:47:48;;;;;;;1.47;0.60;;;3.80;99.90;;;;;;4995703;28;20201;-53
2021/11/27 00:50:18;;;;;;;2.97;0.50;;;3.80;99.90;;;;;;4998077;28;20228;-57
2021/11/27 00:52:46;;;;;;;2.27;0.67;;;3.80;99.90;;;;;;4995243;28;20285;-54
2021/11/27 00:55:13;;;;;;;1.67;0.50;;;3.80;99.90;;;;;;4996773;28;20202;-56
2021/11/27 00:57:41;;;;;;;2.10;0.67;;;3.90;99.90;;;;;;4996323;28;20300;-53
2021/11/27 01:00:21;;;;;;;3.03;0.50;;;3.80;99.90;;;;;;4996646;28;20207;-56
2021/11/27 01:02:51;;;;;;;0.93;0.60;;;3.80;99.90;;;;;;5010572;28;20213;-56
2021/11/27 01:05:18;;;;;;;2.47;0.80;;;3.60;99.90;;;;;;4994040;28;20326;-56
2021/11/27 01:07:46;;;;;;;2.00;0.70;;;3.70;99.90;;;;;;4996418;28;20637;-55
2021/11/27 01:10:18;;;;;;;3.13;0.77;;;3.80;99.90;;;;;;4996978;28;20210;-56
2021/11/27 01:12:46;;;;;;;2.37;0.60;;;3.80;99.90;;;;;;4996924;28;20217;-55
2021/11/27 01:15:17;;;;;;;3.43;0.70;;;4.00;99.90;;;;;;4997166;28;20643;-56
2021/11/27 01:17:46;;;;;;;2.50;0.37;;;3.80;99.90;;;;;;4998399;28;20190;-56
2021/11/27 01:20:16;;;;;;;2.50;0.83;;;3.60;99.90;;;;;;4997660;28;20777;-56
2021/11/27 01:22:43;;;;;;;1.87;0.70;;;3.60;99.90;;;;;;4996062;28;20208;-56
2021/11/27 01:25:16;;;;;;;0.60;0.60;;;3.50;99.90;;;;;;5000343;28;20209;-54
2021/11/27 01:27:43;;;;;;;3.23;0.90;;;3.50;99.90;;;;;;4999736;28;20586;-56
2021/11/27 01:30:13;;;;;;;3.23;0.70;;;3.60;99.90;;;;;;4998441;28;20211;-56
2021/11/27 01:32:40;;;;;;;2.47;0.70;;;3.50;99.90;;;;;;4993806;28;20965;-55
2021/11/27 01:35:08;;;;;;;2.20;0.80;;;3.50;99.90;;;;;;5000846;28;20774;-56
2021/11/27 01:37:35;;;;;;;1.63;0.70;;;3.60;99.90;;;;;;4999651;28;20234;-54
2021/11/27 01:40:05;;;;;;;3.93;1.10;;;3.50;99.90;;;;;;4998340;28;20222;-53
2021/11/27 01:42:33;;;;;;;2.73;1.03;;;3.60;99.90;;;;;;4999204;28;20576;-55
2021/11/27 01:45:00;;;;;;;1.03;0.73;;;3.70;99.90;;;;;;5000753;28;20205;-55
2021/11/27 01:47:27;;;;;;;3.33;1.10;;;3.70;99.90;;;;;;4999663;28;20274;-54
2021/11/27 01:49:54;;;;;;;3.13;1.10;;;3.70;99.90;;;;;;5002221;28;20252;-56
2021/11/27 01:52:21;;;;;;;1.67;0.80;;;3.70;99.90;;;;;;4998987;28;20314;-54
2021/11/27 01:54:48;;;;;;;1.57;1.03;;;3.70;99.90;;;;;;4998621;28;22214;-55
2021/11/27 01:57:15;;;;;;;2.63;1.17;;;3.70;99.90;;;;;;5012293;28;20553;-55
2021/11/27 01:59:43;;;;;;;2.07;1.00;;;3.90;99.90;;;;;;4998804;28;20715;-53
2021/11/27 02:02:12;;;;;;;2.20;1.13;;;3.90;99.90;;;;;;4997692;28;20198;-54
2021/11/27 02:04:40;;;;;;;1.73;0.90;;;3.90;99.90;;;;;;4999993;28;20251;-56
2021/11/27 02:07:07;;;;;;;2.50;0.60;;;3.90;99.90;;;;;;4998362;28;20292;-55
2021/11/27 02:09:36;;;;;;;0.63;0.60;;;3.90;99.90;;;;;;4997005;28;20205;-55
2021/11/27 02:12:07;;;;;;;0.70;0.40;;;3.90;99.90;;;;;;4998013;28;20232;-56
2021/11/27 02:14:34;;;;;;;1.10;0.30;;;4.00;99.90;;;;;;4996262;28;20221;-55
2021/11/27 02:17:04;;;;;;;2.10;0.40;;;4.00;99.90;;;;;;4994110;28;20241;-55
2021/11/27 02:19:31;;;;;;;1.70;0.40;;;4.00;99.90;;;;;;4995699;28;20205;-55
2021/11/27 02:21:58;;;;;;;0.40;0.20;;;4.00;99.90;;;;;;4995924;28;20680;-54
2021/11/27 02:24:25;;;;;;;0.67;0.20;;;4.00;99.90;;;;;;4999336;28;20223;-54
2021/11/27 02:26:54;;;;;;;0.77;0.20;;;4.10;99.90;;;;;;4997346;28;20266;-54
2021/11/27 02:29:26;;;;;;;3.90;0.40;;;4.10;99.90;;;;;;4998529;28;20708;-53
2021/11/27 02:31:56;;;;;;;0.63;0.17;;;4.10;99.90;;;;;;4998222;28;20225;-55
2021/11/27 02:34:23;;;;;;;1.40;0.30;;;4.10;99.90;;;;;;4996617;28;20319;-54
2021/11/27 02:36:56;;;;;;;0.70;0.30;;;4.20;99.90;;;;;;4997564;28;20198;-54
2021/11/27 02:39:23;;;;;;;0.60;0.30;;;4.40;99.90;;;;;;4995750;28;20252;-55
2021/11/27 02:41:53;;;;;;;1.27;0.27;;;4.40;99.90;;;;;;4996372;28;20236;-54
2021/11/27 02:44:25;;;;;;;3.10;0.73;;;4.10;99.90;;;;;;4995712;28;20259;-56
2021/11/27 02:46:53;;;;;;;1.03;0.93;;;3.80;99.90;;;;;;4996291;28;20563;-53
2021/11/27 02:49:20;;;;;;;1.33;0.90;;;3.60;99.90;;;;;;4995616;28;20236;-55
2021/11/27 02:51:48;;;;;;;3.20;1.13;;;3.60;99.90;;;;;;4997927;28;20202;-55
2021/11/27 02:54:16;;;;;;;3.40;1.10;;;3.50;99.90;;;;;;4996489;28;20262;-55
2021/11/27 02:56:43;;;;;;;1.03;0.90;;;3.50;99.90;;;;;;4998627;28;20197;-54
2021/11/27 02:59:11;;;;;;;1.57;0.90;;;3.50;99.90;;;;;;4997844;28;20201;-55
2021/11/27 03:01:40;;;;;;;1.47;0.73;;;3.50;99.90;;;;;;4997957;28;20220;-54
2021/11/27 03:04:08;;;;;;;2.10;0.80;;;3.60;99.90;;;;;;4998877;28;20209;-56
2021/11/27 03:06:35;;;;;;;2.00;1.00;;;3.60;99.90;;;;;;4997897;28;20201;-54
2021/11/27 03:09:05;;;;;;;3.80;1.10;;;3.50;99.90;;;;;;4994831;28;20691;-55
2021/11/27 03:11:33;;;;;;;3.87;1.33;;;3.50;99.90;;;;;;4998677;28;20718;-55
2021/11/27 03:14:00;;;;;;;1.30;1.20;;;3.40;99.90;;;;;;4996011;28;20580;-56
2021/11/27 03:16:28;;;;;;;2.47;1.60;;;3.50;99.90;;;;;;4995775;28;20267;-54
2021/11/27 03:19:15;;;;;;;2.80;2.20;;;3.50;99.90;;;;;;4998103;28;20295;-54
2021/11/27 03:21:42;;;;;;;3.60;2.33;;;3.50;99.90;;;;;;4996974;28;20307;-55
2021/11/27 03:24:09;;;;;;;4.50;3.67;;;3.50;99.90;;;;;;4997494;28;20210;-55
2021/11/27 03:26:36;;;;;;;4.53;3.40;;;3.50;99.90;;;;;;4990308;28;20232;-53
2021/11/27 03:29:03;;;;;;;5.13;4.10;;;3.60;99.90;;;;;;4997022;28;20231;-54
2021/11/27 03:31:31;;;;;;;5.23;4.57;;;3.70;99.90;;;;;;4995226;28;20212;-54
2021/11/27 03:33:58;;;;;;;5.67;4.80;;;3.80;99.90;;;;;;4997085;28;20262;-54
2021/11/27 03:36:25;;;;;;;7.33;5.17;;;4.00;99.90;;;;;;4995053;28;20956;-54
2021/11/27 03:38:52;;;;;;;5.63;5.07;;;3.90;99.90;;;;;;4992988;28;20288;-56
2021/11/27 03:41:19;;;;;;;7.03;5.30;;;4.00;99.90;;;;;;4997191;28;20200;-54
2021/11/27 03:43:47;;;;;;;5.77;4.90;;;4.10;99.90;;;;;;4995847;28;20212;-52
2021/11/27 03:46:14;;;;;;;7.13;5.50;;;4.10;99.90;;;;;;4996021;28;20256;-61
2021/11/27 03:48:46;;;;;;;8.43;5.67;;;3.90;99.90;;;;;;4996432;28;20671;-54
2021/11/27 03:51:19;;;;;;;8.53;5.67;;;3.90;99.90;;;;;;4997602;28;20209;-54
2021/11/27 03:53:48;;;;;;;6.43;5.73;;;3.90;99.90;;;;;;4995456;28;20294;-54
2021/11/27 03:56:25;;;;;;;6.13;5.53;;;3.70;99.90;;;;;;4995622;28;20221;-55
2021/11/27 03:58:53;;;;;;;8.17;5.80;;;3.70;99.90;;;;;;4995719;28;20204;-55
2021/11/27 04:01:21;;;;;;;6.63;6.03;;;3.60;99.90;;;;;;4992960;28;20209;-56
2021/11/27 04:03:50;;;;;;;11.57;6.97;;;3.60;99.90;;;;;;4994567;28;20984;-55
2021/11/27 04:06:17;;;;;;;7.50;6.27;;;3.70;99.90;;;;;;4998142;28;20212;-55
2021/11/27 04:08:45;;;;;;;8.23;6.57;;;3.70;99.90;;;;;;4997307;28;20544;-56
2021/11/27 04:11:12;;;;;;;6.40;5.80;;;3.70;99.90;;;;;;4998320;28;20205;-55
2021/11/27 04:13:40;;;;;;;9.87;6.47;;;3.70;99.90;;;;;;4997951;28;20326;-55
2021/11/27 04:16:07;;;;;;;8.27;7.23;;;3.70;99.90;;;;;;4997968;28;20198;-54
2021/11/27 04:18:34;;;;;;;7.43;6.63;;;3.60;99.90;;;;;;4995229;28;20604;-55
2021/11/27 04:21:01;;;;;;;8.87;7.13;;;3.70;99.90;;;;;;4995058;28;20201;-54
2021/11/27 04:23:29;;;;;;;8.43;7.20;;;3.80;99.90;;;;;;4996123;28;20972;-55
2021/11/27 04:25:56;;;;;;;9.53;6.57;;;3.50;99.90;;;;;;4997484;28;20833;-54
2021/11/27 04:28:23;;;;;;;8.50;6.67;;;3.50;99.90;;;;;;4994921;28;20318;-54
2021/11/27 04:30:50;;;;;;;10.40;6.87;;;3.50;99.90;;;;;;4994958;28;20355;-53
2021/11/27 04:33:17;;;;;;;10.40;7.17;;;3.60;99.90;;;;;;4997040;28;20231;-56
2021/11/27 04:35:44;;;;;;;13.40;7.73;;;3.70;99.90;;;;;;4996497;28;20206;-54
2021/11/27 04:38:11;;;;;;;12.47;7.97;;;3.60;99.90;;;;;;4998400;28;20308;-55
2021/11/27 04:40:38;;;;;;;14.00;7.90;;;3.70;99.90;;;;;;4996885;28;20297;-55
2021/11/27 04:43:05;;;;;;;13.60;7.83;;;3.60;99.90;;;;;;4995331;28;20213;-54
2021/11/27 04:45:33;;;;;;;13.40;7.97;;;3.60;99.90;;;;;;4992523;28;20231;-55
2021/11/27 04:48:01;;;;;;;12.57;8.23;;;3.50;99.90;;;;;;4999700;28;20233;-56
2021/11/27 04:50:31;;;;;;;13.00;8.13;;;3.50;99.90;;;;;;5001502;28;20230;-55
2021/11/27 04:52:58;;;;;;;15.77;8.87;;;3.50;99.90;;;;;;5000040;28;20298;-54
2021/11/27 04:55:25;;;;;;;15.00;8.47;;;3.60;99.90;;;;;;4999974;28;20204;-55
2021/11/27 04:57:52;;;;;;;11.37;8.03;;;3.60;99.90;;;;;;4999617;28;20263;-55
2021/11/27 05:00:24;;;;;;;13.63;8.43;;;3.60;99.90;;;;;;4998922;28;20205;-56
2021/11/27 05:02:50;;;;;;;14.77;9.23;;;3.70;99.90;;;;;;4999061;28;20212;-55
2021/11/27 05:05:17;;;;;;;13.00;8.57;;;3.60;99.90;;;;;;4999889;28;20327;-55
2021/11/27 05:07:44;;;;;;;12.57;8.40;;;3.60;99.90;;;;;;4999354;28;20286;-54
2021/11/27 05:10:12;;;;;;;15.33;8.80;;;3.70;99.90;;;;;;4999811;28;20291;-56
2021/11/27 05:12:39;;;;;;;13.87;8.60;;;3.60;99.90;;;;;;4995420;28;20246;-55
2021/11/27 05:15:07;;;;;;;16.00;9.37;;;3.60;99.90;;;;;;4994516;28;21029;-53
2021/11/27 05:17:34;;;;;;;14.23;9.00;;;3.50;99.90;;;;;;4996023;28;20802;-54
2021/11/27 05:20:03;;;;;;;15.33;9.43;;;3.50;99.90;;;;;;5001250;28;20205;-53
2021/11/27 05:22:30;;;;;;;16.93;10.27;;;3.50;99.90;;;;;;4998511;28;20375;-56
2021/11/27 05:24:59;;;;;;;16.97;10.23;;;3.50;99.90;;;;;;4999174;28;20217;-54
2021/11/27 05:27:26;;;;;;;17.20;10.60;;;3.40;99.90;;;;;;4999332;28;20272;-54
2021/11/27 05:29:53;;;;;;;18.50;10.20;;;3.50;99.90;;;;;;4998746;28;20289;-55
2021/11/27 05:32:25;;;;;;;17.17;10.37;;;3.50;99.90;;;;;;4999554;28;20565;-56
2021/11/27 05:34:54;;;;;;;18.80;10.87;;;3.70;99.90;;;;;;4999342;28;20248;-54
2021/11/27 05:37:21;;;;;;;18.60;10.43;;;3.60;99.90;;;;;;4999114;28;21055;-55
2021/11/27 05:39:49;;;;;;;20.93;11.13;;;3.50;99.90;;;;;;4999891;28;20271;-55
2021/11/27 05:42:17;;;;;;;20.97;10.53;;;3.40;99.90;;;;;;4998185;28;20327;-55
2021/11/27 05:44:45;;;;;;;21.13;11.77;;;3.50;99.90;;;;;;5000453;28;20345;-56
2021/11/27 05:47:12;;;;;;;18.63;10.67;;;3.40;99.90;;;;;;4995646;28;20296;-55
2021/11/27 05:49:39;;;;;;;21.33;11.73;;;3.30;99.90;;;;;;4998653;28;20205;-59
2021/11/27 05:52:07;;;;;;;21.80;12.80;;;3.40;99.90;;;;;;4997162;28;20263;-55
2021/11/27 05:54:35;;;;;;;19.93;11.03;;;3.70;99.90;;;;;;4999421;28;20245;-54
2021/11/27 05:57:02;;;;;;;19.97;11.20;;;3.60;99.90;;;;;;5001175;28;20359;-53
2021/11/27 05:59:29;;;;;;;19.70;11.07;;;3.60;99.90;;;;;;4995030;28;20205;-55
2021/11/27 06:01:56;;;;;;;20.40;11.67;;;3.60;99.90;;;;;;5000749;28;20735;-55
2021/11/27 06:04:23;;;;;;;23.03;11.93;;;3.40;99.90;;;;;;4997375;28;20241;-56
2021/11/27 06:06:50;;;;;;;18.57;11.30;;;3.50;99.90;;;;;;4996257;28;20296;-54
2021/11/27 06:09:17;;;;;;;24.07;12.60;;;3.40;99.90;;;;;;4995289;28;20572;-56
2021/11/27 06:11:44;;;;;;;21.13;11.97;;;3.50;99.90;;;;;;4998486;28;20280;-54
2021/11/27 06:14:11;;;;;;;24.87;13.37;;;3.50;99.90;;;;;;4998029;28;20269;-56
2021/11/27 06:16:38;;;;;;;22.63;12.63;;;3.30;99.90;;;;;;4997034;28;20500;-55
2021/11/27 06:19:05;;;;;;;26.43;12.70;;;3.30;99.90;;;;;;4996634;28;20243;-56
2021/11/27 06:21:33;;;;;;;24.03;12.93;;;3.40;99.90;;;;;;4997842;28;20240;-55
2021/11/27 06:23:59;;;;;;;28.27;14.70;;;3.20;99.90;;;;;;4996170;28;20295;-55
2021/11/27 06:26:26;;;;;;;29.13;14.90;;;3.20;99.90;;;;;;4995991;28;21580;-55
2021/11/27 06:28:53;;;;;;;31.47;15.67;;;3.20;99.90;;;;;;4999168;28;21121;-57
2021/11/27 06:31:20;;;;;;;27.27;14.73;;;3.10;99.90;;;;;;4995568;28;20709;-55
2021/11/27 06:33:47;;;;;;;26.47;14.10;;;3.30;99.90;;;;;;4997499;28;20645;-55
2021/11/27 06:36:14;;;;;;;27.13;15.00;;;3.10;99.90;;;;;;4997758;28;20582;-54
2021/11/27 06:38:41;;;;;;;30.70;14.63;;;3.10;99.90;;;;;;4994365;28;20282;-53
2021/11/27 06:41:08;;;;;;;27.57;14.40;;;3.00;99.90;;;;;;4997590;28;20717;-56
2021/11/27 06:43:35;;;;;;;29.10;14.23;;;3.10;99.90;;;;;;4996880;28;20782;-59
2021/11/27 06:46:02;;;;;;;30.93;16.23;;;3.10;99.90;;;;;;4999485;28;20262;-54
2021/11/27 06:48:30;;;;;;;29.27;15.03;;;3.30;99.90;;;;;;4999750;28;20209;-56
2021/11/27 06:50:57;;;;;;;27.70;14.47;;;3.40;99.90;;;;;;4996927;28;20267;-54
2021/11/27 06:53:24;;;;;;;32.17;15.83;;;3.40;99.90;;;;;;4995656;28;20316;-53
2021/11/27 06:55:52;;;;;;;29.77;14.33;;;3.10;99.90;;;;;;4999716;28;20237;-55
2021/11/27 06:58:18;;;;;;;27.03;15.70;;;3.00;99.90;;;;;;4997037;28;20392;-56
2021/11/27 07:00:45;;;;;;;29.73;16.43;;;3.00;99.90;;;;;;5008498;28;20669;-56
2021/11/27 07:03:12;;;;;;;30.80;15.63;;;2.90;99.90;;;;;;4996080;28;20213;-55
2021/11/27 07:05:39;;;;;;;34.57;16.00;;;3.00;99.90;;;;;;4993701;28;20294;-55
2021/11/27 07:08:07;;;;;;;30.07;15.43;;;2.90;99.90;;;;;;4996947;28;20290;-57
2021/11/27 07:10:35;;;;;;;29.70;15.90;;;2.90;99.90;;;;;;4997488;28;20213;-54
2021/11/27 07:13:03;;;;;;;33.03;16.53;;;2.90;99.90;;;;;;4997986;28;20283;-54
2021/11/27 07:15:29;;;;;;;35.50;16.17;;;3.00;99.90;;;;;;5000382;28;20241;-56
2021/11/27 07:17:56;;;;;;;34.43;16.20;;;2.90;99.90;;;;;;4997622;28;20209;-56
2021/11/27 07:20:23;;;;;;;27.97;15.40;;;2.90;99.90;;;;;;4998202;28;20739;-55
2021/11/27 07:22:50;;;;;;;34.90;15.80;;;3.00;99.90;;;;;;4997445;28;20198;-55
2021/11/27 07:25:17;;;;;;;29.87;15.50;;;3.00;99.90;;;;;;4998294;28;20582;-56
2021/11/27 07:27:44;;;;;;;30.73;15.20;;;3.00;99.90;;;;;;4995316;28;20260;-56
2021/11/27 07:30:11;;;;;;;29.97;15.47;;;3.10;99.90;;;;;;4993862;28;20210;-55
2021/11/27 07:32:38;;;;;;;30.60;15.13;;;2.90;99.90;;;;;;4993818;28;20221;-54
2021/11/27 07:35:06;;;;;;;26.73;15.67;;;3.20;99.90;;;;;;4994555;28;20558;-54
2021/11/27 07:37:33;;;;;;;27.17;16.43;;;3.10;99.90;;;;;;4992368;28;20261;-54
2021/11/27 07:40:01;;;;;;;30.57;15.37;;;2.90;99.90;;;;;;4995641;28;20295;-54
2021/11/27 07:42:27;;;;;;;30.60;15.83;;;3.10;99.90;;;;;;4993604;28;20299;-54
2021/11/27 07:44:54;;;;;;;28.63;14.60;;;3.20;99.90;;;;;;4996156;28;20256;-55
2021/11/27 07:47:21;;;;;;;27.80;16.03;;;3.20;99.90;;;;;;4995375;28;20218;-54
2021/11/27 07:49:48;;;;;;;25.80;15.47;;;3.20;99.90;;;;;;4997470;28;20236;-54
2021/11/27 07:52:17;;;;;;;36.63;15.80;;;3.20;99.90;;;;;;4995709;28;20320;-54
2021/11/27 07:54:43;;;;;;;28.63;15.60;;;3.20;99.90;;;;;;4995852;28;20269;-54
2021/11/27 07:57:10;;;;;;;25.93;14.07;;;3.20;99.90;;;;;;4993885;28;20284;-54
2021/11/27 07:59:37;;;;;;;28.53;15.20;;;3.20;99.90;;;;;;4992135;28;20245;-54
2021/11/27 08:02:04;;;;;;;32.93;14.67;;;3.10;99.90;;;;;;4993341;28;20236;-56
2021/11/27 08:04:31;;;;;;;26.80;15.00;;;3.10;99.90;;;;;;4988721;28;20538;-56
2021/11/27 08:06:58;;;;;;;27.97;13.80;;;3.10;99.90;;;;;;4993808;28;20644;-54
2021/11/27 08:09:25;;;;;;;29.60;14.07;;;3.10;99.90;;;;;;4994080;28;20201;-55
2021/11/27 08:11:52;;;;;;;26.93;14.03;;;3.00;99.90;;;;;;4989948;28;20209;-56
2021/11/27 08:14:19;;;;;;;29.93;14.37;;;3.00;99.90;;;;;;4984775;28;20268;-54
2021/11/27 08:16:46;;;;;;;28.90;13.77;;;3.10;99.90;;;;;;4990026;28;20270;-54
2021/11/27 08:19:13;;;;;;;28.17;14.50;;;3.00;99.90;;;;;;4989425;28;20201;-56
2021/11/27 08:21:39;;;;;;;24.67;13.60;;;3.10;99.90;;;;;;4996645;28;20284;-54
2021/11/27 08:24:06;;;;;;;26.97;13.10;;;3.10;99.90;;;;;;4997050;28;20610;-56
2021/11/27 08:26:33;;;;;;;29.13;13.23;;;3.10;99.90;;;;;;4995827;28;20216;-54
2021/11/27 08:29:00;;;;;;;22.40;12.50;;;3.20;99.90;;;;;;4996222;28;20293;-56
2021/11/27 08:31:27;;;;;;;22.73;12.70;;;3.10;99.90;;;;;;4997088;28;20251;-55
2021/11/27 08:33:54;;;;;;;19.60;11.80;;;3.10;99.90;;;;;;4999298;28;20248;-54
2021/11/27 08:36:21;;;;;;;24.97;11.47;;;3.20;99.90;;;;;;4997836;28;20297;-53
2021/11/27 08:38:48;;;;;;;21.20;12.10;;;3.30;99.90;;;;;;5000494;28;20199;-56
2021/11/27 08:41:15;;;;;;;21.10;12.37;;;3.40;99.90;;;;;;5000001;28;20208;-56
2021/11/27 08:43:42;;;;;;;23.03;12.17;;;3.40;99.90;;;;;;5000458;28;20236;-56
2021/11/27 08:46:09;;;;;;;23.40;12.07;;;3.40;99.90;;;;;;4998566;28;20233;-56
2021/11/27 08:48:37;;;;;;;23.27;12.23;;;3.30;99.90;;;;;;4998465;28;20660;-55
2021/11/27 08:51:10;;;;;;;19.67;11.73;;;3.50;99.90;;;;;;4998726;28;20221;-55
2021/11/27 08:53:38;;;;;;;17.10;10.63;;;3.40;99.90;;;;;;5000882;28;20314;-54
2021/11/27 08:56:07;;;;;;;16.80;10.13;;;3.30;99.90;;;;;;5001087;28;20637;-54
2021/11/27 08:58:34;;;;;;;22.07;9.63;;;3.50;99.90;;;;;;4998825;28;20212;-56
2021/11/27 09:01:02;;;;;;;18.23;10.77;;;3.40;99.90;;;;;;4998430;28;20289;-55
2021/11/27 09:03:30;;;;;;;15.27;9.17;;;3.40;99.90;;;;;;4992796;28;20303;-54
2021/11/27 09:05:57;;;;;;;19.63;10.10;;;3.70;99.90;;;;;;4995320;28;20320;-55
2021/11/27 09:08:24;;;;;;;16.23;8.53;;;3.70;99.90;;;;;;4992912;28;20292;-56
2021/11/27 09:10:51;;;;;;;18.50;9.53;;;4.00;99.90;;;;;;4997599;28;20305;-54
2021/11/27 09:13:19;;;;;;;17.33;9.20;;;4.20;99.90;;;;;;4993539;28;20758;-55
2021/11/27 09:15:46;;;;;;;19.33;10.03;;;3.90;99.90;;;;;;4995365;28;20221;-54
2021/11/27 09:18:13;;;;;;;15.40;8.73;;;4.00;99.90;;;;;;4996394;28;20252;-55
2021/11/27 09:20:40;;;;;;;13.33;8.33;;;4.30;99.90;;;;;;4994314;28;20225;-56
2021/11/27 09:23:07;;;;;;;15.07;9.07;;;4.60;99.90;;;;;;4994166;28;20236;-54
2021/11/27 09:25:36;;;;;;;15.93;8.50;;;4.60;99.90;;;;;;4995574;28;20232;-54
2021/11/27 09:28:03;;;;;;;16.13;8.80;;;4.70;99.90;;;;;;4993667;28;20325;-56
2021/11/27 09:30:31;;;;;;;18.30;8.80;;;4.90;99.90;;;;;;4996598;28;20297;-55
2021/11/27 09:32:58;;;;;;;22.60;9.33;;;5.30;99.90;;;;;;4992584;28;20375;-53
2021/11/27 09:35:25;;;;;;;17.27;9.27;;;5.30;99.90;;;;;;4993648;28;20788;-55
2021/11/27 09:37:52;;;;;;;18.33;8.43;;;5.10;99.90;;;;;;4995195;28;20205;-53
2021/11/27 09:40:20;;;;;;;14.47;8.33;;;5.20;99.90;;;;;;4996441;28;20775;-56
2021/11/27 09:42:54;;;;;;;15.10;8.90;;;5.10;99.90;;;;;;4996700;28;20206;-54
2021/11/27 09:45:26;;;;;;;20.53;9.87;;;5.10;99.90;;;;;;4997445;28;20210;-55
2021/11/27 09:47:55;;;;;;;20.37;8.63;;;5.50;99.90;;;;;;4993760;28;20210;-55
2021/11/27 09:50:23;;;;;;;13.63;8.23;;;5.40;99.90;;;;;;5002683;28;20256;-54
2021/11/27 09:52:51;;;;;;;18.43;7.97;;;5.40;99.90;;;;;;4986574;28;20209;-55
2021/11/27 09:55:19;;;;;;;18.03;8.23;;;5.20;99.90;;;;;;4993687;28;20283;-54
2021/11/27 09:57:49;;;;;;;13.60;7.33;;;5.30;99.90;;;;;;4995051;28;20198;-55
2021/11/27 10:00:19;;;;;;;14.63;6.47;;;5.20;99.90;;;;;;4994826;28;20925;-55
2021/11/27 10:02:53;;;;;;;12.20;7.23;;;4.90;99.90;;;;;;4994613;28;20201;-55
2021/11/27 10:05:21;;;;;;;16.10;7.97;;;5.00;99.90;;;;;;4994468;28;20207;-55
2021/11/27 10:07:50;;;;;;;15.20;7.73;;;5.00;99.90;;;;;;4994780;28;20295;-53
2021/11/27 10:10:18;;;;;;;12.17;7.33;;;5.20;99.90;;;;;;4996543;28;20206;-55
2021/11/27 10:12:45;;;;;;;15.10;6.60;;;5.30;99.90;;;;;;4995323;28;20198;-54
2021/11/27 10:15:14;;;;;;;14.37;7.27;;;5.20;99.90;;;;;;4995734;28;20248;-55
2021/11/27 10:17:42;;;;;;;16.87;6.67;;;5.00;99.90;;;;;;4995350;28;20205;-54
2021/11/27 10:20:10;;;;;;;13.53;6.87;;;5.00;99.90;;;;;;5000126;28;20309;-54
2021/11/27 10:22:39;;;;;;;16.20;7.03;;;4.80;99.90;;;;;;4995681;28;20210;-56
2021/11/27 10:25:25;;;;;;;12.13;5.97;;;5.00;99.90;;;;;;4999035;28;20247;-56
2021/11/27 10:28:08;;;;;;;9.83;6.23;;;5.10;99.90;;;;;;4997052;28;20245;-56
2021/11/27 10:30:53;;;;;;;14.77;6.83;;;5.00;99.90;;;;;;4997088;28;20240;-57
2021/11/27 10:33:21;;;;;;;12.10;6.67;;;5.20;99.90;;;;;;4998742;28;20915;-55
2021/11/27 10:36:01;;;;;;;9.63;5.93;;;5.00;99.90;;;;;;4997086;28;20330;-54
2021/11/27 10:38:47;;;;;;;15.40;6.27;;;5.10;99.90;;;;;;4998311;28;20635;-56
2021/11/27 10:41:17;;;;;;;15.40;6.43;;;5.00;99.90;;;;;;4999858;28;20229;-54
2021/11/27 10:44:05;;;;;;;9.67;4.87;;;5.10;99.90;;;;;;4994350;28;20345;-54
2021/11/27 10:46:36;;;;;;;10.30;5.13;;;5.20;99.90;;;;;;4995237;28;20591;-54
2021/11/27 10:49:05;;;;;;;12.30;6.10;;;5.40;99.90;;;;;;5000051;28;20252;-55
2021/11/27 10:51:33;;;;;;;15.90;6.00;;;5.50;99.90;;;;;;4995950;28;20353;-54
2021/11/27 10:54:04;;;;;;;10.57;5.17;;;5.70;99.90;;;;;;4998539;28;20204;-57
2021/11/27 10:56:57;;;;;;;15.87;6.40;;;6.00;99.90;;;;;;4997921;28;20202;-55
2021/11/27 10:59:24;;;;;;;15.43;5.60;;;6.20;99.90;;;;;;4998745;28;20218;-55
2021/11/27 11:02:02;;;;;;;10.43;6.03;;;6.10;99.90;;;;;;4993453;28;20236;-53
2021/11/27 11:04:30;;;;;;;10.63;5.20;;;6.00;99.90;;;;;;4998562;28;20217;-53
2021/11/27 11:07:14;;;;;;;16.30;5.73;;;6.00;99.90;;;;;;5000043;28;20671;-55
2021/11/27 11:10:07;;;;;;;10.37;5.13;;;6.10;99.90;;;;;;4996536;28;20227;-54
2021/11/27 11:12:50;;;;;;;9.93;5.53;;;6.30;99.90;;;;;;4999203;28;20591;-54
2021/11/27 11:15:31;;;;;;;12.17;4.80;;;6.60;99.90;;;;;;4996739;28;20214;-56
2021/11/27 11:18:34;;;;;;;11.77;5.10;;;6.80;99.90;;;;;;4998292;28;20208;-55
2021/11/27 11:21:04;;;;;;;9.70;4.63;;;6.70;99.90;;;;;;5013981;28;20836;-55
2021/11/27 11:23:37;;;;;;;12.57;5.37;;;6.40;99.90;;;;;;5013728;28;20618;-55
2021/11/27 11:26:15;;;;;;;13.90;5.07;;;6.80;99.90;;;;;;5013863;28;20570;-56
2021/11/27 11:28:51;;;;;;;13.30;4.63;;;7.00;99.90;;;;;;5012066;28;20324;-53
2021/11/27 11:31:20;;;;;;;7.73;4.47;;;7.30;99.90;;;;;;5014190;28;20247;-54
2021/11/27 11:33:50;;;;;;;12.37;5.57;;;7.30;99.90;;;;;;5013210;28;20200;-56
2021/11/27 11:36:20;;;;;;;12.97;5.17;;;7.90;99.90;;;;;;5016523;28;20576;-55
2021/11/27 11:38:52;;;;;;;10.73;4.87;;;7.90;99.90;;;;;;5011554;28;20342;-55
2021/11/27 11:41:21;;;;;;;11.97;5.17;;;7.40;99.90;;;;;;5011176;28;20202;-56
2021/11/27 11:43:50;;;;;;;13.33;5.80;;;7.10;99.90;;;;;;5010125;28;20291;-55
2021/11/27 11:46:18;;;;;;;9.23;5.40;;;7.10;99.90;;;;;;5012958;28;20234;-55
2021/11/27 11:48:51;;;;;;;15.87;5.87;;;7.30;99.90;;;;;;5009477;28;20672;-52
2021/11/27 11:51:59;;;;;;;8.63;4.67;;;7.20;99.90;;;;;;5006115;28;20349;-55
2021/11/27 11:54:30;;;;;;;11.30;5.23;;;7.00;99.90;;;;;;5008736;28;20225;-55
2021/11/27 11:57:06;;;;;;;8.83;4.80;;;7.00;99.90;;;;;;4995456;28;20230;-52
2021/11/27 11:59:34;;;;;;;17.07;5.20;;;6.60;99.90;;;;;;4999095;28;20192;-56
2021/11/27 12:02:28;;;;;;;10.40;4.40;;;6.40;99.90;;;;;;4998882;28;20702;-55
2021/11/27 12:04:58;;;;;;;12.20;5.50;;;6.40;99.90;;;;;;4999885;28;20680;-55
2021/11/27 12:10:26;;;;;;;10.43;4.87;;;6.60;99.90;;;;;;4998671;28;20220;-55
2021/11/27 12:13:05;;;;;;;7.33;4.37;;;6.50;99.90;;;;;;4996181;28;20770;-56
2021/11/27 12:15:43;;;;;;;7.63;5.03;;;6.30;99.90;;;;;;4997329;28;20348;-55
2021/11/27 12:18:18;;;;;;;13.67;5.13;;;6.40;99.90;;;;;;4997841;28;20610;-55
2021/11/27 12:20:45;;;;;;;9.27;4.27;;;6.20;99.90;;;;;;4997968;28;20242;-56
2021/11/27 12:23:27;;;;;;;10.37;4.97;;;6.30;99.90;;;;;;4993963;28;20678;-55
2021/11/27 12:26:10;;;;;;;10.70;5.43;;;6.20;99.90;;;;;;4999377;28;20229;-54
2021/11/27 12:28:45;;;;;;;11.53;4.83;;;6.20;99.90;;;;;;4996316;28;20704;-55
2021/11/27 12:31:36;;;;;;;12.33;4.37;;;6.20;99.90;;;;;;4997364;28;20648;-54
2021/11/27 12:34:05;;;;;;;15.07;5.20;;;6.20;99.90;;;;;;4994492;28;20284;-54
2021/11/27 12:36:32;;;;;;;12.03;4.70;;;6.40;99.90;;;;;;4997190;28;20225;-55
2021/11/27 12:39:11;;;;;;;10.00;3.93;;;6.10;99.90;;;;;;4996753;28;20210;-55
2021/11/27 12:42:04;;;;;;;10.40;4.77;;;6.40;99.90;;;;;;4996037;28;20526;-55
2021/11/27 12:44:50;;;;;;;9.47;4.53;;;6.50;99.90;;;;;;4996360;28;20280;-53
2021/11/27 12:47:20;;;;;;;10.20;3.83;;;6.50;99.90;;;;;;4996871;28;20296;-54
2021/11/27 12:49:47;;;;;;;10.10;4.17;;;6.40;99.90;;;;;;4999701;28;20237;-55
2021/11/27 12:52:14;;;;;;;11.20;4.97;;;6.50;99.90;;;;;;4998620;28;20229;-55
2021/11/27 12:54:42;;;;;;;7.40;3.90;;;6.60;99.90;;;;;;4997299;28;20229;-55
2021/11/27 12:57:10;;;;;;;6.27;3.53;;;6.70;99.90;;;;;;4996405;28;20276;-55
2021/11/27 12:59:44;;;;;;;9.03;3.50;;;6.90;99.90;;;;;;4992309;28;20976;-54
2021/11/27 13:02:15;;;;;;;8.17;3.60;;;6.90;99.90;;;;;;4990139;28;20251;-54